Time;durP1;ratioP1;P1;durP2;ratioP2;P2;SDS_P1;SDS_P2;PMS_P1;PMS_P2;Temp;Humidity;BMP_temperature;BMP_pressure;BME280_temperature;BME280_humidity;BME280_pressure;Samples;Min_cycle;Max_cycle;Signal;HPM_P1;HPM_P2
2023/08/17 00:01:36;;;;;;;13.40;2.60;;;21.30;99.90;;;;;;5050093;28;21416;-64
2023/08/17 00:04:03;;;;;;;7.20;2.60;;;21.30;99.90;;;;;;5050161;28;20868;-63
2023/08/17 00:06:30;;;;;;;9.27;3.30;;;21.30;99.90;;;;;;5023906;28;21026;-64
2023/08/17 00:08:57;;;;;;;4.90;3.13;;;21.30;99.90;;;;;;5050843;28;20480;-63
2023/08/17 00:11:24;;;;;;;16.43;4.33;;;21.30;99.90;;;;;;5051030;28;20456;-63
2023/08/17 00:13:51;;;;;;;7.50;3.40;;;21.40;99.90;;;;;;5051969;28;20519;-64
2023/08/17 00:16:18;;;;;;;12.23;4.07;;;21.30;99.90;;;;;;5052850;28;20838;-64
2023/08/17 00:18:46;;;;;;;10.67;3.37;;;21.30;99.90;;;;;;5041293;28;20543;-64
2023/08/17 00:21:13;;;;;;;9.03;3.73;;;21.40;99.90;;;;;;5049108;28;20769;-64
2023/08/17 00:23:41;;;;;;;13.60;3.80;;;21.40;99.90;;;;;;5052582;28;20446;-64
2023/08/17 00:26:09;;;;;;;6.00;3.20;;;21.40;99.90;;;;;;5049540;28;21627;-64
2023/08/17 00:28:36;;;;;;;6.00;2.90;;;21.40;99.90;;;;;;5050766;28;20599;-64
2023/08/17 00:31:03;;;;;;;26.73;4.17;;;21.40;99.90;;;;;;5050086;28;20575;-64
2023/08/17 00:33:31;;;;;;;10.90;2.90;;;21.40;99.90;;;;;;5050115;28;20808;-63
2023/08/17 00:35:59;;;;;;;10.93;3.20;;;;;;;;;;5051343;28;20542;-64
2023/08/17 00:38:26;;;;;;;17.23;3.13;;;21.30;99.90;;;;;;5050723;28;20547;-64
2023/08/17 00:40:54;;;;;;;8.13;2.63;;;21.10;99.90;;;;;;5051356;28;20721;-63
2023/08/17 00:43:21;;;;;;;18.93;3.60;;;21.10;99.90;;;;;;5039835;28;20758;-63
2023/08/17 00:45:48;;;;;;;8.47;2.57;;;21.10;99.90;;;;;;5048097;28;20473;-63
2023/08/17 00:48:15;;;;;;;6.77;3.30;;;21.10;99.90;;;;;;5051991;28;20870;-64
2023/08/17 00:50:43;;;;;;;13.03;3.83;;;21.10;99.90;;;;;;5038792;28;20482;-63
2023/08/17 00:53:13;;;;;;;10.00;2.87;;;21.00;99.90;;;;;;5050826;28;20484;-64
2023/08/17 00:55:40;;;;;;;10.20;3.80;;;21.00;99.90;;;;;;5051121;28;20843;-64
2023/08/17 00:58:07;;;;;;;16.30;3.80;;;21.00;99.90;;;;;;5049947;28;20481;-64
2023/08/17 01:00:34;;;;;;;84.70;9.03;;;21.00;99.90;;;;;;5054726;22;20534;-70
2023/08/17 01:03:01;;;;;;;17.50;3.60;;;21.00;99.90;;;;;;4962248;28;21532;-69
2023/08/17 01:05:29;;;;;;;12.03;3.33;;;20.80;99.90;;;;;;4939699;28;21028;-69
2023/08/17 01:07:56;;;;;;;14.63;3.67;;;21.00;99.90;;;;;;4949464;28;20540;-69
2023/08/17 01:10:24;;;;;;;9.60;3.67;;;20.90;99.90;;;;;;4946711;28;20494;-69
2023/08/17 01:13:01;;;;;;;12.33;3.33;;;21.00;99.90;;;;;;4948997;28;20523;-69
2023/08/17 01:15:35;;;;;;;34.23;4.27;;;21.00;99.90;;;;;;4952540;28;20542;-70
2023/08/17 01:18:16;;;;;;;6.83;2.93;;;21.00;99.90;;;;;;4949895;28;21058;-69
2023/08/17 01:20:43;;;;;;;3.03;2.73;;;21.00;99.90;;;;;;4949490;28;20513;-70
2023/08/17 01:23:12;;;;;;;30.57;4.10;;;21.00;99.90;;;;;;4950563;28;20508;-70
2023/08/17 01:25:39;;;;;;;12.77;2.90;;;21.00;99.90;;;;;;4951601;28;20578;-71
2023/08/17 01:28:06;;;;;;;28.77;4.83;;;21.10;99.90;;;;;;4947966;28;20489;-70
2023/08/17 01:30:39;;;;;;;13.93;3.90;;;21.10;99.90;;;;;;4946965;28;20842;-70
2023/08/17 01:33:09;;;;;;;57.30;5.93;;;21.00;99.90;;;;;;4939798;28;20551;-70
2023/08/17 01:35:45;;;;;;;21.97;3.70;;;21.00;99.90;;;;;;4947527;28;20495;-71
2023/08/17 01:38:17;;;;;;;17.93;4.13;;;21.00;99.90;;;;;;4948019;28;20969;-71
2023/08/17 01:40:46;;;;;;;15.00;3.73;;;21.00;99.90;;;;;;4948755;28;20492;-71
2023/08/17 01:43:14;;;;;;;12.97;3.00;;;20.80;99.90;;;;;;4938571;28;21391;-70
2023/08/17 01:45:41;;;;;;;19.77;3.80;;;20.60;99.90;;;;;;4950661;28;20877;-70
2023/08/17 01:48:08;;;;;;;28.63;4.50;;;20.60;99.90;;;;;;4947652;28;20502;-70
2023/08/17 01:50:35;;;;;;;21.70;3.60;;;20.40;99.90;;;;;;4948111;28;20464;-70
2023/08/17 01:53:02;;;;;;;29.93;3.83;;;20.20;99.90;;;;;;4948173;28;20737;-69
2023/08/17 01:55:30;;;;;;;24.07;2.77;;;20.30;99.90;;;;;;4951082;28;21361;-70
2023/08/17 01:57:57;;;;;;;20.87;3.17;;;20.40;99.90;;;;;;4940668;28;20481;-69
2023/08/17 02:00:24;;;;;;;14.13;3.27;;;20.40;99.90;;;;;;4947993;28;20956;-69
2023/08/17 02:02:51;;;;;;;60.30;5.53;;;20.40;99.90;;;;;;4949433;28;20583;-70
2023/08/17 02:05:18;;;;;;;48.30;3.80;;;20.20;99.90;;;;;;4950410;28;20482;-70
2023/08/17 02:07:45;;;;;;;20.60;4.23;;;20.10;99.90;;;;;;4932787;28;20493;-70
2023/08/17 02:10:12;;;;;;;19.40;3.23;;;20.00;99.90;;;;;;4949807;28;21044;-70
2023/08/17 02:12:40;;;;;;;22.80;3.20;;;19.70;99.90;;;;;;4948571;28;20510;-70
2023/08/17 02:15:08;;;;;;;19.90;3.20;;;19.70;99.90;;;;;;4947947;28;20519;-70
2023/08/17 02:17:35;;;;;;;19.27;2.97;;;19.60;99.90;;;;;;4947925;28;20804;-70
2023/08/17 02:20:03;;;;;;;13.73;2.20;;;19.70;99.90;;;;;;4948707;28;20596;-70
2023/08/17 02:22:30;;;;;;;6.67;2.60;;;;;;;;;;4949837;28;20747;-70
2023/08/17 02:24:57;;;;;;;8.40;2.87;;;20.00;99.90;;;;;;4950617;28;20489;-70
2023/08/17 02:27:23;;;;;;;11.23;2.67;;;20.10;99.90;;;;;;4948780;28;20475;-70
2023/08/17 02:29:52;;;;;;;11.83;3.90;;;20.20;99.90;;;;;;4946170;28;20585;-69
2023/08/17 02:32:19;;;;;;;5.20;2.20;;;20.30;99.90;;;;;;4923896;28;20474;-70
2023/08/17 02:34:45;;;;;;;15.53;3.20;;;20.30;99.90;;;;;;4942111;28;20563;-70
2023/08/17 02:37:12;;;;;;;4.57;3.33;;;20.40;99.90;;;;;;4948480;28;21008;-69
2023/08/17 02:39:40;;;;;;;2.77;2.13;;;20.40;99.90;;;;;;4947946;28;20986;-69
2023/08/17 02:42:07;;;;;;;6.00;2.50;;;20.50;99.90;;;;;;4948769;28;20489;-69
2023/08/17 02:44:34;;;;;;;4.37;2.73;;;20.50;99.90;;;;;;4949160;28;20836;-69
2023/08/17 02:47:02;;;;;;;7.37;2.73;;;20.50;99.90;;;;;;4950047;28;20502;-69
2023/08/17 02:49:29;;;;;;;13.87;2.87;;;20.60;99.90;;;;;;4949347;28;20483;-70
2023/08/17 02:51:56;;;;;;;7.10;2.97;;;20.60;99.90;;;;;;4948493;28;20566;-69
2023/08/17 02:54:23;;;;;;;5.83;2.33;;;20.60;99.90;;;;;;4944998;28;20528;-69
2023/08/17 02:56:50;;;;;;;4.00;1.90;;;20.60;99.90;;;;;;4949804;28;20537;-69
2023/08/17 02:59:17;;;;;;;3.63;2.20;;;20.60;99.90;;;;;;4945678;28;20824;-70
2023/08/17 03:01:45;;;;;;;7.13;2.00;;;20.60;99.90;;;;;;4946211;28;20683;-69
2023/08/17 03:04:13;;;;;;;6.90;2.40;;;20.70;99.90;;;;;;4944780;28;20535;-69
2023/08/17 03:06:40;;;;;;;8.87;2.43;;;20.70;99.90;;;;;;4947250;28;20604;-70
2023/08/17 03:09:07;;;;;;;11.33;2.30;;;20.70;99.90;;;;;;4944072;28;20480;-70
2023/08/17 03:11:34;;;;;;;3.60;2.03;;;20.70;99.90;;;;;;4942939;28;20462;-69
2023/08/17 03:14:01;;;;;;;17.90;2.80;;;20.70;99.90;;;;;;4942292;28;20484;-69
2023/08/17 03:16:29;;;;;;;18.40;3.40;;;20.50;99.90;;;;;;4944807;28;20493;-70
2023/08/17 03:18:57;;;;;;;11.77;2.90;;;20.40;99.90;;;;;;4940247;28;20499;-70
2023/08/17 03:21:25;;;;;;;5.80;2.50;;;20.50;99.90;;;;;;4943665;28;20482;-70
2023/08/17 03:23:54;;;;;;;2.87;2.20;;;20.50;99.90;;;;;;4937716;28;20501;-69
2023/08/17 03:26:21;;;;;;;12.80;2.97;;;20.50;99.90;;;;;;4946738;28;20639;-69
2023/08/17 03:28:48;;;;;;;12.40;3.00;;;20.50;99.90;;;;;;4942332;28;20483;-69
2023/08/17 03:31:15;;;;;;;3.90;2.43;;;20.50;99.90;;;;;;4943042;28;20491;-69
2023/08/17 03:33:42;;;;;;;5.90;2.60;;;20.60;99.90;;;;;;4944585;28;20559;-69
2023/08/17 03:36:09;;;;;;;4.90;2.43;;;20.60;99.90;;;;;;4948053;28;20581;-69
2023/08/17 03:38:38;;;;;;;16.93;2.77;;;20.60;99.90;;;;;;4941637;28;20488;-69
2023/08/17 03:41:05;;;;;;;5.03;2.33;;;20.60;99.90;;;;;;4957257;28;20485;-69
2023/08/17 03:43:32;;;;;;;6.13;2.40;;;20.60;99.90;;;;;;4955086;28;20558;-69
2023/08/17 03:45:59;;;;;;;3.80;2.40;;;20.60;99.90;;;;;;4946327;28;21001;-69
2023/08/17 03:48:26;;;;;;;11.67;2.83;;;20.60;99.90;;;;;;4950203;28;20543;-69
2023/08/17 03:50:53;;;;;;;13.73;2.60;;;20.60;99.90;;;;;;4944699;28;20605;-69
2023/08/17 03:53:21;;;;;;;8.70;2.43;;;20.60;99.90;;;;;;4946229;28;20501;-69
2023/08/17 03:55:50;;;;;;;6.23;3.30;;;20.60;99.90;;;;;;4943349;28;20491;-69
2023/08/17 03:58:17;;;;;;;15.63;2.93;;;20.60;99.90;;;;;;4943368;28;20889;-70
2023/08/17 04:00:50;;;;;;;5.93;3.60;;;20.60;99.90;;;;;;4945157;28;20485;-69
2023/08/17 04:03:17;;;;;;;11.53;2.47;;;20.60;99.90;;;;;;4941379;28;20551;-70
2023/08/17 04:05:44;;;;;;;10.90;2.97;;;20.50;99.90;;;;;;4944496;28;20471;-70
2023/08/17 04:08:11;;;;;;;3.07;2.10;;;20.50;99.90;;;;;;4946180;28;20499;-70
2023/08/17 04:10:38;;;;;;;4.87;2.50;;;20.50;99.90;;;;;;4942303;28;20493;-69
2023/08/17 04:13:06;;;;;;;5.50;3.10;;;20.50;99.90;;;;;;4943285;28;20569;-70
2023/08/17 04:15:33;;;;;;;8.40;2.97;;;20.50;99.90;;;;;;4942898;28;20479;-70
2023/08/17 04:18:00;;;;;;;8.70;2.50;;;;;;;;;;4951521;28;20569;-70
2023/08/17 04:20:27;;;;;;;2.80;2.00;;;20.50;99.90;;;;;;4940148;28;20578;-70
2023/08/17 04:22:54;;;;;;;4.53;1.80;;;20.50;99.90;;;;;;4943060;28;20606;-69
2023/08/17 04:25:21;;;;;;;2.93;2.43;;;20.50;99.90;;;;;;4939868;28;20571;-70
2023/08/17 04:27:48;;;;;;;4.13;2.30;;;20.50;99.90;;;;;;4948250;28;20563;-70
2023/08/17 04:30:16;;;;;;;8.93;2.70;;;20.60;99.90;;;;;;4946144;28;20575;-71
2023/08/17 04:32:43;;;;;;;7.00;4.10;;;20.60;99.90;;;;;;4949566;28;20959;-71
2023/08/17 04:35:11;;;;;;;5.50;2.37;;;20.60;99.90;;;;;;4945502;28;20587;-72
2023/08/17 04:37:38;;;;;;;3.33;2.67;;;20.60;99.90;;;;;;4947942;28;20459;-71
2023/08/17 04:40:06;;;;;;;10.03;3.20;;;20.60;99.90;;;;;;4945584;28;20864;-72
2023/08/17 04:42:33;;;;;;;7.20;2.70;;;20.60;99.90;;;;;;4945662;28;21106;-72
2023/08/17 04:45:00;;;;;;;6.63;3.50;;;20.60;99.90;;;;;;4968389;28;20540;-72
2023/08/17 04:47:29;;;;;;;4.43;2.53;;;20.60;99.90;;;;;;4951601;28;20566;-71
2023/08/17 04:49:56;;;;;;;5.83;2.40;;;20.60;99.90;;;;;;4950313;28;20462;-73
2023/08/17 04:52:23;;;;;;;15.77;3.03;;;20.60;99.90;;;;;;4942820;28;20560;-72
2023/08/17 04:54:49;;;;;;;10.53;2.70;;;20.60;99.90;;;;;;4950819;28;20917;-71
2023/08/17 04:57:17;;;;;;;5.20;2.93;;;20.50;99.90;;;;;;4944756;28;20485;-72
2023/08/17 04:59:44;;;;;;;11.33;2.90;;;20.60;99.90;;;;;;4943869;28;20488;-73
2023/08/17 05:02:11;;;;;;;4.03;3.40;;;20.60;99.90;;;;;;4937024;28;20584;-71
2023/08/17 05:04:39;;;;;;;18.70;5.17;;;20.60;99.90;;;;;;4983180;28;20550;-72
2023/08/17 05:07:07;;;;;;;18.83;4.70;;;20.60;99.90;;;;;;4952377;28;20582;-72
2023/08/17 05:09:34;;;;;;;11.33;3.37;;;20.60;99.90;;;;;;4943610;28;20567;-72
2023/08/17 05:12:01;;;;;;;5.03;3.80;;;20.60;99.90;;;;;;4949323;28;20481;-70
2023/08/17 05:14:28;;;;;;;30.37;4.60;;;20.50;99.90;;;;;;4965434;28;20561;-72
2023/08/17 05:16:56;;;;;;;9.10;2.57;;;20.60;99.90;;;;;;4945662;28;20574;-71
2023/08/17 05:19:23;;;;;;;3.47;2.80;;;20.50;99.90;;;;;;4948265;28;20550;-71
2023/08/17 05:21:51;;;;;;;3.13;2.50;;;20.50;99.90;;;;;;4945346;28;20514;-71
2023/08/17 05:24:20;;;;;;;17.10;3.80;;;20.50;99.90;;;;;;4947753;28;20506;-72
2023/08/17 05:26:47;;;;;;;4.63;2.80;;;20.50;99.90;;;;;;4946573;28;20516;-71
2023/08/17 05:29:17;;;;;;;3.60;2.80;;;20.50;99.90;;;;;;4960772;28;20569;-71
2023/08/17 05:31:44;;;;;;;6.47;3.50;;;20.50;99.90;;;;;;4939203;28;20485;-71
2023/08/17 05:34:10;;;;;;;22.10;3.30;;;20.40;99.90;;;;;;4943633;28;20721;-70
2023/08/17 05:36:39;;;;;;;4.40;3.13;;;20.40;99.90;;;;;;4945205;28;20816;-71
2023/08/17 05:39:07;;;;;;;11.73;3.07;;;20.40;99.90;;;;;;4943738;28;20484;-69
2023/08/17 05:41:34;;;;;;;7.10;3.40;;;20.40;99.90;;;;;;4946312;28;20492;-69
2023/08/17 05:44:01;;;;;;;6.27;3.70;;;20.40;99.90;;;;;;4947409;28;20594;-70
2023/08/17 05:46:28;;;;;;;4.37;3.20;;;20.50;99.90;;;;;;4944575;28;20459;-70
2023/08/17 05:48:55;;;;;;;5.10;3.43;;;20.50;99.90;;;;;;4944178;28;20552;-69
2023/08/17 05:51:22;;;;;;;6.80;3.43;;;20.50;99.90;;;;;;4948666;28;20977;-68
2023/08/17 05:53:49;;;;;;;5.67;4.30;;;20.60;99.90;;;;;;4945435;28;20506;-69
2023/08/17 05:56:18;;;;;;;6.33;3.43;;;20.60;99.90;;;;;;4946932;28;20476;-69
2023/08/17 05:58:44;;;;;;;9.23;4.23;;;20.70;99.90;;;;;;4945532;28;20575;-69
2023/08/17 06:01:12;;;;;;;6.80;5.23;;;20.70;99.90;;;;;;4949331;28;20457;-70
2023/08/17 06:03:39;;;;;;;7.60;5.00;;;20.70;99.90;;;;;;4933448;28;20940;-70
2023/08/17 06:06:06;;;;;;;10.00;5.07;;;20.70;99.90;;;;;;4948636;28;20577;-71
2023/08/17 06:08:33;;;;;;;7.70;4.63;;;20.70;99.90;;;;;;4970132;28;20497;-70
2023/08/17 06:11:01;;;;;;;10.13;4.97;;;20.80;99.90;;;;;;4943469;28;20970;-71
2023/08/17 06:13:29;;;;;;;7.60;4.70;;;20.80;99.90;;;;;;4938963;28;20906;-71
2023/08/17 06:15:57;;;;;;;6.57;4.60;;;20.70;99.90;;;;;;4951431;28;20568;-71
2023/08/17 06:18:24;;;;;;;6.90;4.90;;;20.80;99.90;;;;;;4943854;28;20510;-71
2023/08/17 06:20:53;;;;;;;5.90;4.70;;;20.80;99.90;;;;;;4949825;28;20826;-72
2023/08/17 06:23:20;;;;;;;6.07;4.40;;;20.90;99.90;;;;;;4943031;28;20927;-72
2023/08/17 06:25:47;;;;;;;6.57;4.67;;;21.00;99.90;;;;;;4949345;28;20485;-72
2023/08/17 06:28:14;;;;;;;6.10;4.70;;;21.10;99.90;;;;;;4942016;28;20760;-72
2023/08/17 06:30:42;;;;;;;7.33;4.20;;;21.20;99.90;;;;;;4950488;28;20458;-72
2023/08/17 06:33:09;;;;;;;6.23;3.67;;;21.20;99.90;;;;;;4945339;28;20531;-72
2023/08/17 06:35:36;;;;;;;4.83;4.37;;;21.20;99.90;;;;;;4950748;28;21212;-73
2023/08/17 06:38:04;;;;;;;6.33;4.10;;;21.20;99.90;;;;;;4950454;28;20480;-72
2023/08/17 06:40:31;;;;;;;13.37;5.00;;;21.30;99.90;;;;;;4945090;28;21093;-73
2023/08/17 06:42:58;;;;;;;6.10;4.20;;;21.40;99.90;;;;;;4944727;28;20480;-73
2023/08/17 06:45:24;;;;;;;7.70;3.67;;;21.50;99.90;;;;;;4950417;28;20557;-72
2023/08/17 06:47:53;;;;;;;5.60;4.57;;;21.50;99.90;;;;;;4954129;28;20571;-72
2023/08/17 06:50:20;;;;;;;14.77;5.10;;;21.50;99.90;;;;;;4962873;28;20495;-76
2023/08/17 06:52:47;;;;;;;7.77;5.70;;;21.50;99.90;;;;;;4944601;28;20793;-75
2023/08/17 06:55:14;;;;;;;6.47;5.50;;;21.50;99.90;;;;;;4945296;28;20456;-73
2023/08/17 06:57:41;;;;;;;4.77;3.80;;;21.60;99.90;;;;;;4945650;28;20479;-74
2023/08/17 07:00:11;;;;;;;14.60;5.50;;;21.50;99.90;;;;;;4943573;28;20459;-75
2023/08/17 07:02:38;;;;;;;8.20;4.50;;;21.50;99.90;;;;;;4942417;28;20503;-76
2023/08/17 07:05:08;;;;;;;4.90;4.40;;;21.60;99.90;;;;;;4941265;28;20540;-77
2023/08/17 07:07:35;;;;;;;8.40;4.20;;;21.50;99.90;;;;;;4945767;28;20761;-75
2023/08/17 07:10:02;;;;;;;7.23;4.93;;;21.50;99.90;;;;;;4940232;28;20463;-75
2023/08/17 07:12:29;;;;;;;6.83;4.53;;;21.50;99.90;;;;;;4960904;28;20536;-74
2023/08/17 07:14:56;;;;;;;5.27;4.77;;;21.60;99.90;;;;;;4943506;28;20711;-74
2023/08/17 07:17:23;;;;;;;8.87;5.37;;;21.60;99.90;;;;;;4950365;28;20570;-75
2023/08/17 07:19:49;;;;;;;5.77;4.87;;;21.60;99.90;;;;;;4944547;28;20482;-74
2023/08/17 07:22:18;;;;;;;8.07;5.30;;;21.70;99.90;;;;;;4944406;28;20491;-74
2023/08/17 07:24:45;;;;;;;5.80;5.20;;;21.80;99.90;;;;;;4933927;28;20870;-74
2023/08/17 07:27:12;;;;;;;10.27;4.80;;;21.80;99.90;;;;;;4965015;28;21336;-75
2023/08/17 07:29:38;;;;;;;7.30;5.30;;;21.90;99.90;;;;;;4936903;28;20710;-75
2023/08/17 07:32:06;;;;;;;6.27;5.43;;;22.00;99.90;;;;;;4945352;28;20706;-74
2023/08/17 07:34:33;;;;;;;6.07;4.80;;;22.00;99.90;;;;;;4940202;28;21098;-74
2023/08/17 07:36:59;;;;;;;7.77;5.37;;;22.10;99.90;;;;;;4944164;28;20606;-74
2023/08/17 07:39:28;;;;;;;7.77;5.20;;;22.20;99.90;;;;;;4934145;28;20579;-75
2023/08/17 07:41:55;;;;;;;11.50;4.73;;;22.30;99.90;;;;;;4972953;28;20773;-76
2023/08/17 07:44:21;;;;;;;7.83;6.10;;;22.50;99.90;;;;;;4948663;28;20595;-74
2023/08/17 07:46:48;;;;;;;6.37;4.77;;;22.60;99.90;;;;;;4942931;28;20488;-75
2023/08/17 07:49:15;;;;;;;9.23;4.80;;;22.80;99.90;;;;;;4947836;28;20542;-75
2023/08/17 07:51:42;;;;;;;6.57;5.20;;;22.90;99.90;;;;;;4939464;28;20514;-75
2023/08/17 07:54:09;;;;;;;6.37;5.00;;;23.20;99.90;;;;;;4945112;28;20557;-78
2023/08/17 07:56:37;;;;;;;11.00;4.70;;;23.40;99.90;;;;;;4942212;28;20554;-75
2023/08/17 07:59:05;;;;;;;11.20;4.33;;;23.60;99.90;;;;;;4951889;28;20551;-76
2023/08/17 08:01:32;;;;;;;5.87;4.30;;;23.60;99.90;;;;;;4948430;28;20546;-77
2023/08/17 08:03:59;;;;;;;10.03;5.30;;;23.70;99.90;;;;;;4953043;28;20483;-78
2023/08/17 08:06:26;;;;;;;9.20;4.10;;;23.80;99.90;;;;;;4947656;28;20572;-75
2023/08/17 08:08:53;;;;;;;5.87;4.83;;;23.80;99.90;;;;;;4951662;28;20508;-76
2023/08/17 08:11:22;;;;;;;5.20;4.70;;;23.90;99.90;;;;;;4947425;28;20460;-77
2023/08/17 08:13:50;;;;;;;6.07;4.90;;;23.90;99.90;;;;;;4949532;28;20533;-77
2023/08/17 08:16:17;;;;;;;16.07;5.50;;;24.00;99.90;;;;;;4942772;28;20544;-77
2023/08/17 08:18:44;;;;;;;5.40;4.90;;;;;;;;;;4946556;28;20582;-77
2023/08/17 08:21:11;;;;;;;4.70;4.23;;;24.10;99.90;;;;;;4937607;28;20504;-76
2023/08/17 08:23:39;;;;;;;8.83;6.30;;;24.00;99.90;;;;;;4983305;28;20946;-77
2023/08/17 08:26:06;;;;;;;21.73;6.07;;;23.90;99.90;;;;;;4958593;28;20456;-76
2023/08/17 08:28:32;;;;;;;6.00;5.13;;;23.90;99.90;;;;;;4965871;28;20860;-75
2023/08/17 08:31:04;;;;;;;5.70;5.20;;;23.90;99.90;;;;;;4942615;28;20562;-74
2023/08/17 08:33:31;;;;;;;9.77;6.10;;;23.90;99.90;;;;;;4945423;28;20487;-76
2023/08/17 08:35:58;;;;;;;20.73;6.20;;;;;;;;;;4946709;28;20464;-73
2023/08/17 08:38:25;;;;;;;7.30;5.50;;;24.10;99.90;;;;;;4930190;28;20494;-76
2023/08/17 08:40:52;;;;;;;10.37;5.83;;;24.10;99.90;;;;;;4943773;28;20482;-74
2023/08/17 08:43:20;;;;;;;6.17;5.30;;;24.20;99.90;;;;;;4939356;28;20494;-74
2023/08/17 08:45:51;;;;;;;6.30;5.63;;;24.30;99.90;;;;;;4946454;28;20848;-72
2023/08/17 08:48:22;;;;;;;5.33;4.83;;;24.40;99.90;;;;;;4948846;28;20887;-73
2023/08/17 08:50:52;;;;;;;5.17;4.67;;;24.40;99.90;;;;;;4948781;28;20599;-74
2023/08/17 08:53:28;;;;;;;6.40;5.50;;;24.40;99.90;;;;;;4947228;28;20490;-73
2023/08/17 08:55:56;;;;;;;38.67;7.30;;;;;;;;;;4949901;28;20487;-73
2023/08/17 08:58:25;;;;;;;7.70;5.23;;;24.50;99.90;;;;;;4950476;28;20458;-74
2023/08/17 09:00:53;;;;;;;5.17;4.67;;;24.60;99.90;;;;;;4949983;28;20841;-74
2023/08/17 09:03:22;;;;;;;6.03;4.97;;;24.60;99.90;;;;;;4948048;28;20570;-73
2023/08/17 09:05:50;;;;;;;27.13;6.73;;;24.70;99.90;;;;;;4941668;28;20878;-74
2023/08/17 09:08:22;;;;;;;5.67;5.17;;;24.70;99.90;;;;;;4966587;28;20471;-72
2023/08/17 09:10:50;;;;;;;7.27;5.20;;;24.80;99.90;;;;;;4944412;28;20577;-70
2023/08/17 09:13:17;;;;;;;7.20;4.83;;;25.00;99.90;;;;;;4950215;28;20759;-71
2023/08/17 09:15:44;;;;;;;14.30;6.23;;;25.10;99.90;;;;;;4949867;28;20487;-70
2023/08/17 09:18:11;;;;;;;6.20;5.40;;;25.20;99.90;;;;;;4949175;28;20521;-70
2023/08/17 09:20:41;;;;;;;5.80;5.07;;;25.50;99.90;;;;;;4948243;28;20768;-70
2023/08/17 09:23:13;;;;;;;10.83;5.70;;;25.60;99.90;;;;;;4948227;28;20758;-70
2023/08/17 09:25:41;;;;;;;16.23;5.30;;;25.80;99.90;;;;;;4939737;28;21038;-69
2023/08/17 09:28:09;;;;;;;4.57;4.17;;;25.80;99.90;;;;;;4943844;28;20836;-67
2023/08/17 09:30:51;;;;;;;6.20;4.90;;;25.90;99.90;;;;;;4945603;28;20466;-68
2023/08/17 09:33:18;;;;;;;5.43;4.20;;;26.10;99.90;;;;;;4955306;28;20475;-68
2023/08/17 09:35:46;;;;;;;10.97;4.80;;;26.10;99.90;;;;;;4950105;28;20500;-69
2023/08/17 09:38:13;;;;;;;5.43;4.80;;;26.20;99.90;;;;;;4949823;28;20548;-69
2023/08/17 09:40:40;;;;;;;5.07;4.57;;;26.20;99.90;;;;;;4948554;28;20490;-68
2023/08/17 09:43:07;;;;;;;5.53;4.17;;;26.40;99.90;;;;;;4948350;28;21198;-68
2023/08/17 09:45:33;;;;;;;17.53;4.77;;;26.50;99.90;;;;;;4947011;28;20455;-68
2023/08/17 09:48:00;;;;;;;4.47;4.07;;;26.70;99.90;;;;;;4948850;28;20489;-68
2023/08/17 09:50:27;;;;;;;6.47;3.80;;;27.00;99.90;;;;;;4947031;28;21878;-68
2023/08/17 09:52:56;;;;;;;5.77;4.80;;;27.20;99.90;;;;;;4946271;28;20489;-67
2023/08/17 09:55:23;;;;;;;13.90;4.43;;;27.40;99.90;;;;;;4948166;28;20575;-67
2023/08/17 09:57:52;;;;;;;4.77;4.33;;;27.60;99.90;;;;;;4950586;28;20451;-67
2023/08/17 10:00:20;;;;;;;4.90;4.30;;;27.80;99.90;;;;;;4947209;28;20484;-67
2023/08/17 10:02:50;;;;;;;4.27;3.87;;;28.00;99.90;;;;;;4946662;28;20488;-68
2023/08/17 10:05:20;;;;;;;9.73;4.33;;;28.10;99.90;;;;;;4946080;28;20524;-67
2023/08/17 10:07:52;;;;;;;4.60;4.20;;;28.30;99.90;;;;;;4948564;28;20825;-68
2023/08/17 10:10:26;;;;;;;6.00;4.47;;;28.30;99.90;;;;;;4943771;28;21052;-68
2023/08/17 10:13:04;;;;;;;4.60;3.70;;;28.10;99.90;;;;;;4948455;28;20568;-68
2023/08/17 10:15:32;;;;;;;4.80;4.30;;;28.10;99.90;;;;;;4950049;28;20571;-68
2023/08/17 10:18:08;;;;;;;4.23;3.90;;;27.80;99.90;;;;;;4947683;28;20806;-68
2023/08/17 10:20:37;;;;;;;3.63;3.33;;;27.50;99.90;;;;;;4949513;28;20581;-71
2023/08/17 10:23:15;;;;;;;7.30;4.37;;;27.10;99.90;;;;;;4951558;28;20482;-70
2023/08/17 10:25:44;;;;;;;5.77;4.60;;;26.90;99.90;;;;;;4920813;28;20482;-70
2023/08/17 10:28:14;;;;;;;5.73;4.50;;;;;;;;;;4913982;28;20920;-70
2023/08/17 10:30:42;;;;;;;5.17;4.47;;;26.60;99.90;;;;;;4944875;28;20645;-70
2023/08/17 10:33:10;;;;;;;4.30;3.60;;;26.50;99.90;;;;;;4950343;28;21204;-70
2023/08/17 10:35:39;;;;;;;7.63;4.80;;;26.40;99.90;;;;;;4936203;28;20549;-70
2023/08/17 10:38:06;;;;;;;5.07;4.50;;;;;;;;;;4931552;28;20484;-70
2023/08/17 10:40:38;;;;;;;7.00;5.43;;;26.10;99.90;;;;;;4940432;28;20575;-70
2023/08/17 10:43:06;;;;;;;8.37;6.77;;;26.00;99.90;;;;;;4949472;28;20527;-70
2023/08/17 10:45:37;;;;;;;5.70;5.20;;;25.80;99.90;;;;;;4950920;28;20490;-70
2023/08/17 10:48:34;;;;;;;7.90;6.07;;;25.80;99.90;;;;;;4942341;28;20932;-70
2023/08/17 10:51:03;;;;;;;8.50;5.80;;;25.80;99.90;;;;;;4966852;28;20491;-70
2023/08/17 10:53:38;;;;;;;8.50;5.90;;;25.70;99.90;;;;;;4953960;28;20459;-70
2023/08/17 10:56:09;;;;;;;6.80;5.83;;;25.70;99.90;;;;;;4948692;28;20484;-70
2023/08/17 10:58:38;;;;;;;13.47;6.40;;;;;;;;;;4952305;28;20454;-71
2023/08/17 11:01:05;;;;;;;8.10;7.10;;;25.60;99.90;;;;;;4952646;28;20901;-73
2023/08/17 11:03:33;;;;;;;8.60;6.63;;;25.50;99.90;;;;;;4945692;28;20594;-73
2023/08/17 11:06:16;;;;;;;8.43;6.93;;;25.40;99.90;;;;;;4948844;28;20442;-72
2023/08/17 11:08:54;;;;;;;8.63;6.73;;;25.40;99.90;;;;;;4940734;28;20469;-72
2023/08/17 11:11:22;;;;;;;10.17;6.87;;;25.30;99.90;;;;;;4933992;28;20496;-74
2023/08/17 11:13:51;;;;;;;7.30;6.60;;;25.40;99.90;;;;;;4950159;28;20462;-72
2023/08/17 11:16:20;;;;;;;6.50;5.70;;;25.40;99.90;;;;;;4943791;28;20518;-71
2023/08/17 11:18:48;;;;;;;7.60;6.23;;;25.50;99.90;;;;;;4950346;28;20484;-73
2023/08/17 11:21:15;;;;;;;9.50;6.90;;;25.70;99.90;;;;;;4945643;28;20818;-71
2023/08/17 11:23:43;;;;;;;9.83;6.80;;;25.70;99.90;;;;;;4948156;28;20462;-72
2023/08/17 11:26:10;;;;;;;7.47;6.77;;;;;;;;;;4948757;28;20544;-73
2023/08/17 11:28:38;;;;;;;7.37;5.90;;;25.80;99.90;;;;;;4948502;28;20894;-74
2023/08/17 11:31:09;;;;;;;10.90;6.73;;;25.70;99.90;;;;;;4940195;28;20466;-73
2023/08/17 11:33:37;;;;;;;8.43;7.00;;;25.70;99.90;;;;;;4955197;28;20529;-73
2023/08/17 11:36:06;;;;;;;11.10;6.83;;;25.70;99.90;;;;;;4949904;28;20582;-74
2023/08/17 11:38:33;;;;;;;11.20;6.70;;;25.70;99.90;;;;;;4953920;28;20998;-72
2023/08/17 11:41:01;;;;;;;13.07;8.33;;;25.70;99.90;;;;;;4953408;28;20565;-70
2023/08/17 11:43:29;;;;;;;7.13;6.40;;;25.80;99.90;;;;;;4953961;28;20474;-71
2023/08/17 11:45:56;;;;;;;7.50;6.40;;;25.80;99.90;;;;;;4955790;28;20468;-72
2023/08/17 11:48:25;;;;;;;8.63;6.73;;;25.90;99.90;;;;;;4955599;28;20594;-72
2023/08/17 11:50:53;;;;;;;10.00;7.53;;;25.90;99.90;;;;;;4955062;28;20566;-70
2023/08/17 11:53:20;;;;;;;7.30;6.33;;;25.90;99.90;;;;;;4953372;28;20466;-70
2023/08/17 11:55:48;;;;;;;8.23;5.90;;;26.00;99.90;;;;;;4955042;28;20482;-72
2023/08/17 11:58:15;;;;;;;9.77;7.57;;;26.00;99.90;;;;;;4959079;28;20541;-72
2023/08/17 12:00:44;;;;;;;10.90;6.80;;;;;;;;;;4954071;28;20521;-73
2023/08/17 12:03:15;;;;;;;9.50;7.07;;;26.00;99.90;;;;;;4953727;28;20471;-71
2023/08/17 12:05:45;;;;;;;9.37;7.70;;;26.00;99.90;;;;;;4955899;28;20483;-72
2023/08/17 12:08:14;;;;;;;12.80;7.23;;;25.90;99.90;;;;;;4955106;28;20907;-71
2023/08/17 12:10:41;;;;;;;12.97;6.87;;;25.90;99.90;;;;;;4953847;28;20833;-67
2023/08/17 12:13:12;;;;;;;10.40;6.80;;;25.90;99.90;;;;;;4956969;28;21002;-68
2023/08/17 12:15:40;;;;;;;11.07;7.23;;;25.90;99.90;;;;;;4954680;28;21019;-67
2023/08/17 12:18:07;;;;;;;9.63;7.77;;;25.90;99.90;;;;;;4956466;28;21244;-68
2023/08/17 12:20:36;;;;;;;9.47;8.30;;;26.00;99.90;;;;;;4954638;28;20488;-68
2023/08/17 12:23:05;;;;;;;10.47;7.90;;;26.10;99.90;;;;;;4955534;28;20491;-68
2023/08/17 12:25:32;;;;;;;16.67;8.83;;;26.00;99.90;;;;;;4955263;28;20468;-67
2023/08/17 12:28:00;;;;;;;15.20;8.80;;;26.10;99.90;;;;;;4955699;28;20470;-68
2023/08/17 12:30:29;;;;;;;12.50;7.63;;;26.20;99.90;;;;;;4952853;28;20455;-68
2023/08/17 12:32:56;;;;;;;11.27;7.30;;;26.20;99.90;;;;;;4955415;28;20522;-68
2023/08/17 12:35:24;;;;;;;9.50;6.70;;;26.20;99.90;;;;;;4954751;28;20511;-68
2023/08/17 12:37:51;;;;;;;13.17;7.37;;;26.30;99.90;;;;;;4957354;28;21057;-68
2023/08/17 12:40:20;;;;;;;11.47;8.10;;;26.30;99.90;;;;;;4956058;28;20487;-68
2023/08/17 12:42:47;;;;;;;12.33;7.23;;;26.40;99.90;;;;;;4953556;28;20568;-68
2023/08/17 12:45:15;;;;;;;8.30;7.10;;;26.40;99.90;;;;;;4953464;28;21254;-68
2023/08/17 12:47:42;;;;;;;8.57;7.60;;;26.60;99.90;;;;;;4949096;28;22134;-67
2023/08/17 12:50:09;;;;;;;8.87;6.80;;;26.80;99.90;;;;;;4951226;28;20583;-68